Time;durP1;ratioP1;P1;durP2;ratioP2;P2;SDS_P1;SDS_P2;PMS_P1;PMS_P2;Temp;Humidity;BMP_temperature;BMP_pressure;BME280_temperature;BME280_humidity;BME280_pressure;Samples;Min_cycle;Max_cycle;Signal;HPM_P1;HPM_P2
2022/05/08 00:01:59;;;;;;;6.77;4.83;;;;;;;10.54;76.87;99129.44;5051968;28;20191;-58
2022/05/08 00:04:25;;;;;;;4.87;4.10;;;;;;;10.43;76.47;99130.41;5049805;28;20277;-55
2022/05/08 00:06:52;;;;;;;7.70;5.07;;;;;;;10.36;75.14;99129.28;5052034;28;20265;-53
2022/05/08 00:09:19;;;;;;;8.57;4.60;;;;;;;10.28;75.73;99129.13;5051599;28;20225;-56
2022/05/08 00:11:47;;;;;;;7.33;4.30;;;;;;;10.23;77.24;99129.53;5051830;28;20229;-57
2022/05/08 00:14:15;;;;;;;7.30;4.67;;;;;;;10.26;76.53;99126.66;5051105;28;20301;-55
2022/05/08 00:16:42;;;;;;;6.63;4.33;;;;;;;10.22;77.34;99122.66;5051726;28;20277;-57
2022/05/08 00:19:09;;;;;;;6.87;4.00;;;;;;;10.19;76.15;99123.78;5046387;28;20580;-57
2022/05/08 00:21:36;;;;;;;6.90;4.93;;;;;;;10.15;77.58;99118.94;5051646;28;20218;-54
2022/05/08 00:24:03;;;;;;;6.20;4.10;;;;;;;10.10;77.17;99110.69;5050933;28;20206;-56
2022/05/08 00:26:30;;;;;;;3.80;3.50;;;;;;;10.07;77.41;99113.63;5047803;28;20668;-55
2022/05/08 00:28:59;;;;;;;6.87;4.00;;;;;;;10.12;79.02;99120.06;5047466;28;20211;-56
2022/05/08 00:31:26;;;;;;;4.83;3.80;;;;;;;10.06;77.85;99115.38;5062984;28;20199;-56
2022/05/08 00:33:53;;;;;;;4.77;3.87;;;;;;;10.04;79.16;99110.31;5050242;28;20206;-57
2022/05/08 00:36:21;;;;;;;4.23;3.37;;;;;;;10.06;78.85;99119.78;5050523;28;20643;-57
2022/05/08 00:38:48;;;;;;;5.53;3.27;;;;;;;9.97;77.72;99118.78;5049735;28;20198;-56
2022/05/08 00:41:15;;;;;;;5.43;4.00;;;;;;;10.04;76.95;99114.69;5051198;28;20226;-56
2022/05/08 00:43:43;;;;;;;5.97;4.03;;;;;;;10.05;76.46;99108.50;5049552;28;20199;-56
2022/05/08 00:46:12;;;;;;;6.17;4.20;;;;;;;10.13;77.37;99105.22;5051080;28;20197;-54
2022/05/08 00:48:42;;;;;;;4.97;4.10;;;;;;;10.18;77.52;99108.25;5045964;28;20210;-58
2022/05/08 00:51:10;;;;;;;5.03;4.00;;;;;;;10.18;76.92;99106.47;5051380;28;20191;-56
2022/05/08 00:53:38;;;;;;;5.50;4.07;;;;;;;10.19;76.59;99100.28;5050874;28;20187;-55
2022/05/08 00:56:07;;;;;;;5.10;4.60;;;;;;;10.11;77.23;99110.59;5049542;28;20308;-57
2022/05/08 00:58:36;;;;;;;8.43;4.73;;;;;;;10.14;77.01;99099.03;5051375;28;20203;-56
2022/05/08 01:01:03;;;;;;;6.03;4.07;;;;;;;10.07;78.50;99098.78;5051159;28;20265;-57
2022/05/08 01:03:32;;;;;;;5.77;4.57;;;;;;;10.07;78.24;99100.56;5050047;28;20209;-56
2022/05/08 01:06:04;;;;;;;6.53;4.67;;;;;;;10.06;77.96;99097.13;5050475;28;20217;-57
2022/05/08 01:08:33;;;;;;;9.37;4.40;;;;;;;9.98;78.48;99099.59;5049478;28;20345;-56
2022/05/08 01:11:02;;;;;;;5.77;3.97;;;;;;;9.97;78.21;99109.19;5051303;28;20183;-57
2022/05/08 01:13:30;;;;;;;8.70;4.30;;;;;;;9.98;78.14;99103.03;5051114;28;20197;-55
2022/05/08 01:15:57;;;;;;;6.20;4.37;;;;;;;9.90;77.78;99108.91;5051085;28;20218;-55
2022/05/08 01:18:24;;;;;;;6.63;4.00;;;;;;;9.91;76.99;99114.97;5045508;28;20207;-55
2022/05/08 01:20:53;;;;;;;5.77;3.93;;;;;;;9.86;77.65;99109.31;5051249;28;20197;-56
2022/05/08 01:23:21;;;;;;;5.20;3.80;;;;;;;9.76;77.06;99104.06;5050997;28;20241;-57
2022/05/08 01:25:51;;;;;;;4.97;3.87;;;;;;;9.78;76.41;99106.56;5049525;28;20218;-57
2022/05/08 01:28:18;;;;;;;5.03;3.93;;;;;;;9.75;77.88;99113.69;5051023;28;20571;-54
2022/05/08 01:30:47;;;;;;;5.73;4.00;;;;;;;9.81;78.10;99101.88;5051430;28;20674;-55
2022/05/08 01:33:16;;;;;;;6.03;3.97;;;;;;;9.84;78.56;99100.81;5050414;28;20191;-54
2022/05/08 01:35:43;;;;;;;7.77;4.30;;;;;;;9.84;79.53;99100.81;5050612;28;20206;-52
2022/05/08 01:38:14;;;;;;;6.20;3.77;;;;;;;9.80;78.63;99097.63;5047739;28;20222;-53
2022/05/08 01:40:43;;;;;;;3.90;3.50;;;;;;;9.82;77.69;99106.13;5050396;28;20191;-54
2022/05/08 01:43:11;;;;;;;6.90;3.77;;;;;;;9.83;78.66;99102.56;5050897;28;20209;-55
2022/05/08 01:45:39;;;;;;;6.63;4.60;;;;;;;9.78;78.33;99112.56;5049732;28;20647;-54
2022/05/08 01:48:21;;;;;;;5.53;4.10;;;;;;;9.76;78.88;99104.06;5050366;28;20279;-55
2022/05/08 01:50:50;;;;;;;4.53;3.60;;;;;;;9.70;77.69;99105.44;5043590;28;20335;-55
2022/05/08 01:53:18;;;;;;;5.90;3.83;;;;;;;9.69;77.91;99109.00;5053211;28;20280;-55
2022/05/08 01:55:49;;;;;;;6.73;3.77;;;;;;;9.71;79.33;99107.09;5053762;28;20217;-55
2022/05/08 01:58:16;;;;;;;6.03;3.90;;;;;;;9.60;80.28;99107.19;5053976;28;20248;-55
2022/05/08 02:00:45;;;;;;;5.13;4.10;;;;;;;9.54;79.32;99105.13;5054618;28;20239;-53
2022/05/08 02:03:13;;;;;;;5.57;4.20;;;;;;;9.52;79.82;99105.25;5054533;28;20187;-54
2022/05/08 02:05:41;;;;;;;6.00;4.20;;;;;;;9.48;78.94;99105.63;5053651;28;20211;-55
2022/05/08 02:08:08;;;;;;;5.20;3.70;;;;;;;9.42;78.06;99104.41;5054080;28;20556;-55
2022/05/08 02:10:35;;;;;;;5.50;4.10;;;;;;;9.44;78.70;99100.69;5053781;28;20191;-55
2022/05/08 02:13:04;;;;;;;4.40;3.97;;;;;;;9.37;80.07;99104.78;5053582;28;20194;-55
2022/05/08 02:15:31;;;;;;;4.63;4.10;;;;;;;9.44;79.23;99099.88;5053661;28;20294;-57
2022/05/08 02:18:01;;;;;;;7.63;4.20;;;;;;;9.41;80.51;99105.34;5054176;28;20579;-57
2022/05/08 02:20:28;;;;;;;7.57;3.70;;;;;;;9.35;80.78;99096.25;5053766;28;20187;-56
2022/05/08 02:22:56;;;;;;;5.50;3.43;;;;;;;9.35;80.63;99090.25;5053734;28;20193;-58
2022/05/08 02:25:23;;;;;;;4.63;3.60;;;;;;;9.34;79.76;99099.81;5053800;28;20226;-57
2022/05/08 02:27:51;;;;;;;6.87;3.97;;;;;;;9.35;79.78;99095.47;5054192;28;20664;-57
2022/05/08 02:30:23;;;;;;;4.37;3.97;;;;;;;9.26;80.00;99084.88;5054330;28;20578;-57
2022/05/08 02:32:52;;;;;;;4.50;3.93;;;;;;;9.31;80.09;99092.28;5053464;28;20193;-57
2022/05/08 02:35:21;;;;;;;4.53;3.90;;;;;;;9.24;80.83;99089.38;5053844;28;20222;-57
2022/05/08 02:37:50;;;;;;;11.10;4.40;;;;;;;9.34;82.25;99088.59;5054480;28;20197;-57
2022/05/08 02:40:17;;;;;;;6.27;4.20;;;;;;;9.28;81.69;99090.78;5052167;28;20206;-57
2022/05/08 02:42:44;;;;;;;4.97;3.90;;;;;;;9.19;80.59;99086.34;5054123;28;20194;-57
2022/05/08 02:45:12;;;;;;;6.43;4.53;;;;;;;9.21;81.30;99087.03;5053513;28;20224;-57
2022/05/08 02:47:43;;;;;;;5.67;4.10;;;;;;;9.26;82.69;99090.06;5053726;28;20183;-53
2022/05/08 02:50:11;;;;;;;6.90;4.00;;;;;;;9.17;81.96;99093.47;5053455;28;20257;-57
2022/05/08 02:52:39;;;;;;;7.33;4.07;;;;;;;9.14;81.14;99093.72;5053550;28;20215;-55
2022/05/08 03:00:40;;;;;;;8.67;4.67;;;;;;;9.20;84.23;99090.59;5053556;28;20213;-55
2022/05/08 03:03:09;;;;;;;6.43;4.17;;;;;;;9.14;84.07;99083.31;5053512;28;20198;-56
2022/05/08 03:05:37;;;;;;;4.17;3.77;;;;;;;9.06;83.32;99088.34;5052714;28;20221;-58
2022/05/08 03:08:05;;;;;;;6.27;4.93;;;;;;;9.01;83.05;99079.13;5053299;28;20205;-55
2022/05/08 03:11:25;;;;;;;7.13;4.20;;;;;;;9.04;81.00;99083.25;5052880;28;20280;-54
2022/05/08 03:13:20;;;;;;;7.60;4.70;;;;;;;9.13;83.80;99082.47;5052747;28;20226;-55
2022/05/08 03:15:47;;;;;;;7.57;4.43;;;;;;;9.04;83.38;99087.63;5053130;28;20617;-57
2022/05/08 03:18:18;;;;;;;7.90;3.90;;;;;;;9.07;80.99;99097.78;5051836;28;20220;-54
2022/05/08 03:20:47;;;;;;;6.27;4.57;;;;;;;8.98;81.18;99086.38;5051750;28;20734;-56
2022/05/08 03:23:15;;;;;;;4.83;4.10;;;;;;;8.95;81.02;99097.88;5051579;28;20222;-54
2022/05/08 03:25:43;;;;;;;5.80;4.30;;;;;;;8.91;80.72;99091.28;5052570;28;20245;-52
2022/05/08 03:28:11;;;;;;;5.07;4.30;;;;;;;8.96;81.77;99093.50;5052458;28;20218;-53
2022/05/08 03:30:38;;;;;;;5.60;4.80;;;;;;;8.94;81.50;99091.00;5051444;28;20207;-54
2022/05/08 03:33:08;;;;;;;7.33;4.30;;;;;;;8.83;81.71;99086.72;5048691;28;20206;-55
2022/05/08 03:35:37;;;;;;;6.03;4.27;;;;;;;8.82;81.97;99095.47;5051534;28;20213;-53
2022/05/08 03:38:05;;;;;;;4.70;4.17;;;;;;;8.79;83.02;99090.53;5056551;28;20676;-53
2022/05/08 03:40:33;;;;;;;8.27;4.20;;;;;;;8.80;82.66;99086.13;5056182;28;20190;-55
2022/05/08 03:43:00;;;;;;;4.73;3.93;;;;;;;8.86;82.65;99090.81;5071011;28;20200;-52
2022/05/08 03:45:29;;;;;;;5.97;4.40;;;;;;;8.94;83.15;99093.63;5070611;28;20232;-54
2022/05/08 03:47:57;;;;;;;4.90;4.40;;;;;;;8.99;84.70;99090.63;5072226;28;20197;-53
2022/05/08 03:50:24;;;;;;;6.93;4.50;;;;;;;8.94;83.62;99090.19;5071991;28;20432;-54
2022/05/08 03:52:52;;;;;;;6.70;4.20;;;;;;;8.88;83.61;99091.53;5072070;28;20182;-53
2022/05/08 03:55:19;;;;;;;8.77;4.20;;;;;;;8.92;82.35;99092.09;5071847;28;20252;-52
2022/05/08 03:57:46;;;;;;;5.53;4.50;;;;;;;8.92;82.56;99099.91;5071999;28;20191;-54
2022/05/08 04:00:15;;;;;;;7.00;3.90;;;;;;;8.83;82.82;99093.69;5063904;28;20194;-53
2022/05/08 04:02:43;;;;;;;5.57;4.50;;;;;;;8.79;83.23;99095.72;5044625;28;20296;-54
2022/05/08 04:05:11;;;;;;;11.97;4.93;;;;;;;8.85;84.07;99091.78;5067638;28;20705;-54
2022/05/08 04:07:38;;;;;;;6.00;4.60;;;;;;;8.88;85.17;99093.31;5071792;28;20201;-52
2022/05/08 04:10:08;;;;;;;5.33;4.53;;;;;;;8.81;85.43;99099.03;5065043;28;20225;-54
2022/05/08 04:12:35;;;;;;;6.33;4.70;;;;;;;8.81;85.33;99104.25;5050301;28;20259;-57
2022/05/08 04:15:02;;;;;;;6.23;5.20;;;;;;;8.81;85.89;99096.44;5051398;28;20569;-52
2022/05/08 04:17:32;;;;;;;7.63;4.80;;;;;;;8.85;86.26;99105.63;5051813;28;20193;-53
2022/05/08 04:19:59;;;;;;;8.47;4.87;;;;;;;8.83;86.11;99106.69;5051775;28;20197;-54
2022/05/08 04:25:12;;;;;;;7.23;4.97;;;;;;;8.84;86.19;99108.34;5050079;28;20230;-52
2022/05/08 04:27:39;;;;;;;7.23;4.63;;;;;;;8.83;85.35;99115.34;5051665;28;20189;-51
2022/05/08 04:30:07;;;;;;;8.00;4.97;;;;;;;8.85;85.75;99110.84;5051937;28;20210;-53
2022/05/08 04:32:34;;;;;;;9.40;5.17;;;;;;;8.85;85.33;99105.63;5051897;28;20200;-54
2022/05/08 04:35:01;;;;;;;6.40;4.97;;;;;;;8.89;85.49;99107.97;5049958;28;20209;-54
2022/05/08 04:37:28;;;;;;;6.03;4.90;;;;;;;8.94;84.96;99109.25;5051587;28;20215;-53
2022/05/08 04:39:55;;;;;;;5.90;4.90;;;;;;;8.97;84.54;99110.78;5051349;28;20273;-55
2022/05/08 04:42:23;;;;;;;7.00;5.47;;;;;;;9.13;86.65;99116.31;5050939;28;20598;-54
2022/05/08 04:44:50;;;;;;;7.67;5.37;;;;;;;9.13;88.14;99120.72;5051206;28;20235;-53
2022/05/08 04:47:18;;;;;;;8.33;5.43;;;;;;;9.18;87.31;99120.31;5051883;28;20208;-52
2022/05/08 04:49:44;;;;;;;6.07;5.17;;;;;;;9.18;86.71;99128.97;5050136;28;20641;-55
2022/05/08 04:52:12;;;;;;;6.73;4.50;;;;;;;9.23;86.12;99121.59;5051857;28;20240;-54
2022/05/08 04:54:40;;;;;;;5.43;4.53;;;;;;;9.29;86.01;99118.47;5051401;28;20199;-54
2022/05/08 04:57:07;;;;;;;7.43;4.57;;;;;;;9.36;86.06;99121.38;5051406;28;20285;-52
2022/05/08 04:59:36;;;;;;;8.50;4.93;;;;;;;9.47;87.03;99117.84;5051549;28;20202;-52
2022/05/08 05:02:03;;;;;;;6.13;5.07;;;;;;;9.49;88.13;99122.94;5051457;28;20198;-54
2022/05/08 05:04:30;;;;;;;7.27;4.53;;;;;;;9.54;87.27;99126.78;5049467;28;20261;-53
2022/05/08 05:06:59;;;;;;;6.53;4.63;;;;;;;9.59;86.67;99123.78;5051487;28;20205;-53
2022/05/08 05:09:26;;;;;;;6.63;5.33;;;;;;;9.64;86.61;99126.81;5051444;28;20214;-55
2022/05/08 05:11:53;;;;;;;9.17;5.30;;;;;;;9.67;86.94;99117.91;5051333;28;20190;-53
2022/05/08 05:14:20;;;;;;;10.57;5.63;;;;;;;9.74;86.72;99122.47;5051107;28;20235;-53
2022/05/08 05:16:48;;;;;;;6.00;5.40;;;;;;;9.86;87.84;99122.34;5051291;28;20187;-53
2022/05/08 05:19:15;;;;;;;7.83;5.60;;;;;;;9.88;87.52;99129.06;5051328;28;20659;-54
2022/05/08 05:21:42;;;;;;;6.13;5.10;;;;;;;9.94;87.77;99124.28;5051563;28;20194;-52
2022/05/08 05:24:09;;;;;;;8.47;5.73;;;;;;;9.99;87.44;99122.09;5050962;28;20213;-55
2022/05/08 05:26:36;;;;;;;8.67;5.93;;;;;;;10.06;85.38;99128.41;5051002;28;20215;-53
2022/05/08 05:29:03;;;;;;;6.50;5.57;;;;;;;10.15;85.41;99125.00;5054647;28;20206;-52
2022/05/08 05:31:30;;;;;;;7.47;5.80;;;;;;;10.23;86.05;99128.72;5053633;28;20223;-54
2022/05/08 05:33:58;;;;;;;7.37;6.17;;;;;;;10.33;85.96;99124.34;5054809;28;20207;-54
2022/05/08 05:36:25;;;;;;;6.97;6.00;;;;;;;10.41;85.14;99132.34;5053560;28;20205;-53
2022/05/08 05:38:52;;;;;;;6.07;5.43;;;;;;;10.53;85.78;99132.19;5055139;28;20203;-53
2022/05/08 05:41:19;;;;;;;7.77;5.53;;;;;;;10.59;87.06;99132.47;5053566;28;20214;-53
2022/05/08 05:43:46;;;;;;;9.63;5.73;;;;;;;10.65;86.83;99132.88;5054290;28;20551;-54
2022/05/08 05:48:59;;;;;;;7.10;6.10;;;;;;;10.74;84.98;99135.47;5054802;28;20318;-53
2022/05/08 05:51:26;;;;;;;9.33;6.60;;;;;;;10.83;84.98;99136.44;5054757;28;20224;-55
2022/05/08 05:53:53;;;;;;;9.00;5.90;;;;;;;10.90;86.26;99134.91;5052871;28;20196;-54
2022/05/08 05:56:20;;;;;;;7.17;6.17;;;;;;;10.94;85.99;99135.44;5054438;28;20200;-52
2022/05/08 05:58:47;;;;;;;9.33;5.67;;;;;;;11.04;85.17;99141.47;5052717;28;20451;-55
2022/05/08 06:01:13;;;;;;;7.20;6.20;;;;;;;11.14;86.24;99138.00;5053600;28;20814;-51
2022/05/08 06:03:40;;;;;;;6.87;6.17;;;;;;;11.25;86.41;99150.06;5054389;28;20190;-53
2022/05/08 06:06:08;;;;;;;7.00;6.00;;;;;;;11.33;84.48;99156.25;5052458;28;20196;-54
2022/05/08 06:08:36;;;;;;;9.67;5.47;;;;;;;11.45;81.21;99150.84;5054437;28;20205;-52
2022/05/08 06:11:02;;;;;;;7.00;4.90;;;;;;;11.57;78.32;99156.69;5054325;28;20208;-53
2022/05/08 06:13:29;;;;;;;10.70;5.33;;;;;;;11.69;76.90;99155.53;5054326;28;20713;-52
2022/05/08 06:15:56;;;;;;;7.57;5.03;;;;;;;11.73;78.67;99162.13;5054168;28;20270;-52
2022/05/08 06:18:24;;;;;;;6.97;5.10;;;;;;;11.74;78.99;99163.78;5053833;28;20193;-52
2022/05/08 06:20:52;;;;;;;8.53;5.13;;;;;;;11.72;79.00;99167.50;5052545;28;20281;-53
2022/05/08 06:23:21;;;;;;;6.50;5.40;;;;;;;11.73;79.76;99164.75;5054000;28;20250;-54
2022/05/08 06:25:48;;;;;;;6.30;5.30;;;;;;;11.77;80.04;99167.88;5053695;28;20222;-54
2022/05/08 06:28:19;;;;;;;6.37;5.33;;;;;;;11.86;80.61;99177.47;5054003;28;20192;-52
2022/05/08 06:30:46;;;;;;;7.30;5.17;;;;;;;12.03;79.97;99175.09;5053797;28;20208;-52
2022/05/08 06:33:13;;;;;;;8.80;5.60;;;;;;;12.27;79.73;99182.38;5053787;28;20188;-53
2022/05/08 06:35:41;;;;;;;7.90;5.53;;;;;;;12.52;78.58;99187.84;5045157;28;20266;-54
2022/05/08 06:38:10;;;;;;;7.60;4.73;;;;;;;12.79;77.49;99189.53;5051754;28;20681;-52
2022/05/08 06:40:38;;;;;;;5.40;4.90;;;;;;;13.04;76.58;99191.56;5053044;28;20183;-52
2022/05/08 06:43:06;;;;;;;5.73;4.90;;;;;;;13.25;75.37;99180.72;5050764;28;20242;-54
2022/05/08 06:45:32;;;;;;;8.40;5.03;;;;;;;13.40;76.29;99189.66;5052144;28;20236;-53
2022/05/08 06:48:05;;;;;;;6.30;5.30;;;;;;;13.48;75.53;99193.34;5053497;28;20239;-52
2022/05/08 06:50:33;;;;;;;6.53;5.43;;;;;;;13.57;75.38;99193.22;5053323;28;20247;-52
2022/05/08 06:53:00;;;;;;;6.23;5.17;;;;;;;13.64;76.67;99187.34;5053539;28;20278;-53
2022/05/08 06:55:27;;;;;;;6.10;4.93;;;;;;;13.70;73.97;99191.97;5052730;28;20214;-53
2022/05/08 06:57:55;;;;;;;6.73;6.03;;;;;;;13.86;75.66;99185.94;5053351;28;20602;-52
2022/05/08 07:03:07;;;;;;;7.20;5.60;;;;;;;14.06;73.56;99194.41;5053043;28;20188;-54
2022/05/08 07:05:38;;;;;;;6.53;5.33;;;;;;;14.16;74.96;99196.88;5051467;28;20271;-54
2022/05/08 07:08:05;;;;;;;8.30;5.30;;;;;;;14.29;73.33;99199.88;5052965;28;20259;-52
2022/05/08 07:10:32;;;;;;;6.33;5.13;;;;;;;14.42;68.95;99199.38;5053276;28;20206;-52
2022/05/08 07:13:01;;;;;;;7.80;5.33;;;;;;;14.63;69.95;99199.94;5053042;28;20218;-54
2022/05/08 07:15:27;;;;;;;7.23;5.30;;;;;;;14.85;71.30;99193.22;5052610;28;20708;-54
2022/05/08 07:17:54;;;;;;;8.30;4.77;;;;;;;15.01;71.41;99195.00;5052795;28;20232;-52
2022/05/08 07:20:22;;;;;;;5.83;5.00;;;;;;;15.09;70.75;99197.63;5052589;28;20187;-52
2022/05/08 07:22:49;;;;;;;6.67;4.80;;;;;;;15.13;68.50;99192.88;5052958;28;20241;-52
2022/05/08 07:25:15;;;;;;;8.37;4.40;;;;;;;15.35;68.62;99199.25;5052174;28;20203;-54
2022/05/08 07:27:45;;;;;;;5.60;4.50;;;;;;;15.54;68.84;99189.34;5045083;28;20187;-54
2022/05/08 07:30:14;;;;;;;5.40;4.87;;;;;;;15.66;70.10;99201.16;5052618;28;20205;-54
2022/05/08 07:32:42;;;;;;;5.30;4.30;;;;;;;15.79;71.14;99197.97;5052632;28;20558;-52
2022/05/08 07:37:55;;;;;;;5.70;4.57;;;;;;;16.04;67.52;99206.59;5052833;28;20182;-52
2022/05/08 07:40:23;;;;;;;6.50;5.33;;;;;;;16.21;62.64;99199.44;5052581;28;20191;-54
2022/05/08 07:42:50;;;;;;;8.73;5.27;;;;;;;16.30;64.45;99202.03;5052091;28;20604;-52
2022/05/08 07:45:18;;;;;;;7.57;5.10;;;;;;;16.42;61.74;99207.72;5051015;28;20289;-53
2022/05/08 07:47:45;;;;;;;8.37;4.90;;;;;;;16.56;62.25;99203.50;5052442;28;20202;-53
2022/05/08 07:50:13;;;;;;;6.57;4.97;;;;;;;16.71;61.22;99206.22;5051715;28;20257;-55
2022/05/08 07:52:41;;;;;;;12.70;5.50;;;;;;;16.91;59.04;99214.44;5044398;28;20199;-54
2022/05/08 07:55:09;;;;;;;6.43;4.97;;;;;;;17.03;56.48;99206.94;5051934;28;20215;-53
2022/05/08 07:57:37;;;;;;;7.80;5.47;;;;;;;17.18;56.25;99215.72;5052068;28;20872;-53
2022/05/08 08:00:05;;;;;;;7.07;5.70;;;;;;;17.27;54.79;99212.00;5052286;28;20286;-52
2022/05/08 08:02:42;;;;;;;9.47;5.77;;;;;;;17.32;54.74;99218.56;5052630;28;20309;-51
2022/05/08 08:05:09;;;;;;;6.43;5.10;;;;;;;17.44;56.17;99218.97;5052371;28;20273;-54
2022/05/08 08:07:37;;;;;;;10.27;5.63;;;;;;;17.51;54.05;99211.94;5052838;28;20286;-54
2022/05/08 08:10:06;;;;;;;10.57;5.00;;;;;;;17.54;54.34;99224.75;5050963;28;20556;-54
2022/05/08 08:12:33;;;;;;;8.27;5.80;;;;;;;17.62;53.61;99218.59;5052480;28;20196;-53
2022/05/08 08:15:01;;;;;;;9.23;5.80;;;;;;;17.64;53.53;99224.50;5052115;28;20217;-52
2022/05/08 08:17:28;;;;;;;6.97;5.43;;;;;;;17.81;52.81;99220.69;5051997;28;20274;-55
2022/05/08 08:19:57;;;;;;;7.60;5.40;;;;;;;17.90;51.67;99224.03;5052493;28;20267;-54
2022/05/08 08:22:25;;;;;;;7.63;5.77;;;;;;;17.97;51.87;99227.56;5051836;28;20202;-54
2022/05/08 08:24:53;;;;;;;6.77;5.50;;;;;;;18.11;52.21;99231.22;5051635;28;20295;-52
2022/05/08 08:27:21;;;;;;;8.90;5.50;;;;;;;18.19;51.94;99229.47;5051991;28;20652;-53
2022/05/08 08:29:48;;;;;;;5.63;4.70;;;;;;;18.24;51.42;99232.38;5052173;28;20284;-55
2022/05/08 08:32:16;;;;;;;9.43;5.47;;;;;;;18.10;51.79;99226.94;5051918;28;20206;-55
2022/05/08 08:34:42;;;;;;;6.77;5.50;;;;;;;18.17;52.24;99231.47;5043836;28;20288;-54
2022/05/08 08:37:11;;;;;;;6.67;5.20;;;;;;;18.24;51.84;99227.94;5052214;28;20238;-52
2022/05/08 08:39:38;;;;;;;7.20;4.90;;;;;;;18.32;51.40;99223.53;5051920;28;20212;-54
2022/05/08 08:42:14;;;;;;;7.43;5.30;;;;;;;18.40;52.17;99226.88;5050696;28;20262;-54
2022/05/08 08:47:45;;;;;;;6.70;5.10;;;;;;;18.72;50.56;99221.28;5050885;28;20193;-51
2022/05/08 08:50:13;;;;;;;6.50;4.63;;;;;;;18.88;48.76;99223.66;5050557;28;20192;-52
2022/05/08 08:52:41;;;;;;;7.13;5.10;;;;;;;18.92;49.24;99221.47;5051184;28;20194;-50
2022/05/08 08:55:09;;;;;;;5.93;5.30;;;;;;;19.08;48.95;99219.59;5049847;28;20292;-52
2022/05/08 08:57:37;;;;;;;6.67;5.03;;;;;;;19.04;48.70;99224.44;5051723;28;20564;-52
2022/05/08 09:00:06;;;;;;;5.60;5.07;;;;;;;19.13;48.32;99228.59;5051574;28;20629;-55
2022/05/08 09:02:34;;;;;;;5.30;4.70;;;;;;;18.95;48.20;99222.91;5053094;28;20198;-51
2022/05/08 09:05:05;;;;;;;5.07;4.57;;;;;;;18.98;47.61;99222.56;5055357;28;20204;-54
2022/05/08 09:07:37;;;;;;;5.30;4.70;;;;;;;19.08;48.53;99228.34;5054304;28;20210;-52
2022/05/08 09:10:10;;;;;;;6.30;5.20;;;;;;;19.22;48.27;99231.09;5055776;28;20204;-54
2022/05/08 09:12:38;;;;;;;6.07;4.73;;;;;;;19.31;46.47;99237.88;5055237;28;20220;-53
2022/05/08 09:15:22;;;;;;;5.20;4.67;;;;;;;19.22;45.27;99231.09;5055292;28;20213;-51
2022/05/08 09:17:54;;;;;;;9.53;5.47;;;;;;;19.39;45.17;99229.78;5055454;28;20181;-53
2022/05/08 09:20:41;;;;;;;6.00;4.80;;;;;;;19.59;46.87;99234.41;5055647;28;20204;-52
2022/05/08 09:23:11;;;;;;;5.13;4.63;;;;;;;19.43;44.10;99224.91;5053480;28;20235;-52
2022/05/08 09:25:49;;;;;;;5.13;3.83;;;;;;;19.42;41.69;99240.00;5055001;28;20224;-52
2022/05/08 09:28:17;;;;;;;5.70;4.57;;;;;;;19.42;44.51;99228.56;5055146;28;20197;-52
2022/05/08 09:31:03;;;;;;;5.17;4.30;;;;;;;19.58;44.33;99222.97;5045703;28;20220;-51
2022/05/08 09:33:32;;;;;;;6.87;4.30;;;;;;;19.64;43.88;99220.56;5055121;28;20193;-54
2022/05/08 09:36:02;;;;;;;6.63;4.60;;;;;;;19.53;43.38;99224.59;5054654;28;20604;-54
2022/05/08 09:38:46;;;;;;;6.53;4.70;;;;;;;19.69;43.81;99218.94;5053425;28;20208;-52
2022/05/08 09:41:15;;;;;;;5.97;4.23;;;;;;;19.57;43.72;99229.28;5053823;28;20251;-51
2022/05/08 09:43:42;;;;;;;5.07;4.10;;;;;;;19.67;43.79;99215.69;5053549;28;20299;-54
2022/05/08 09:46:10;;;;;;;5.93;4.53;;;;;;;19.86;44.17;99214.16;5052201;28;20197;-52
2022/05/08 09:48:38;;;;;;;7.10;5.00;;;;;;;19.93;45.64;99208.09;5054908;28;20208;-54
2022/05/08 09:51:07;;;;;;;8.07;5.10;;;;;;;20.09;47.33;99225.47;5054842;28;20204;-52
2022/05/08 09:53:36;;;;;;;6.70;4.53;;;;;;;19.89;43.73;99216.44;5053266;28;20225;-53
2022/05/08 09:56:05;;;;;;;7.83;5.17;;;;;;;19.85;42.79;99220.47;5053268;28;20218;-52
2022/05/08 09:58:35;;;;;;;5.47;4.30;;;;;;;19.69;43.31;99223.44;5054761;28;20202;-52
2022/05/08 10:01:04;;;;;;;7.07;4.50;;;;;;;19.65;44.31;99211.59;5054281;28;20233;-52
2022/05/08 10:03:51;;;;;;;6.53;4.93;;;;;;;19.81;45.70;99213.09;5054062;28;20221;-54
2022/05/08 10:06:19;;;;;;;5.80;4.97;;;;;;;19.91;44.73;99216.22;5054618;28;20559;-53
2022/05/08 10:08:48;;;;;;;7.63;4.67;;;;;;;20.18;44.66;99208.38;5054513;28;20264;-54
2022/05/08 10:14:07;;;;;;;8.23;4.30;;;;;;;20.07;43.12;99201.84;5052783;28;20216;-52
2022/05/08 10:16:48;;;;;;;8.93;4.83;;;;;;;20.03;46.63;99219.16;5054301;28;20191;-52
2022/05/08 10:19:47;;;;;;;8.33;4.70;;;;;;;20.31;48.28;99215.53;5052947;28;20198;-52
2022/05/08 10:22:17;;;;;;;4.17;3.67;;;;;;;20.59;37.07;99212.78;5054042;28;20271;-54
2022/05/08 10:24:51;;;;;;;4.50;3.60;;;;;;;20.98;40.52;99214.84;5044126;28;20226;-52
2022/05/08 10:27:26;;;;;;;4.90;3.37;;;;;;;20.99;38.66;99214.66;5054297;28;20240;-52
2022/05/08 10:30:23;;;;;;;4.67;3.17;;;;;;;21.12;37.83;99215.69;5052425;28;20198;-53
2022/05/08 10:32:51;;;;;;;3.90;3.30;;;;;;;20.83;37.05;99212.41;5011672;28;20704;-51
2022/05/08 10:35:20;;;;;;;5.27;3.93;;;;;;;20.94;37.69;99209.16;5053788;28;20750;-51
2022/05/08 10:37:49;;;;;;;4.10;3.70;;;;;;;20.30;37.63;99209.44;5053595;28;20220;-52
2022/05/08 10:40:36;;;;;;;6.27;4.00;;;;;;;20.68;38.17;99213.38;5054090;28;20187;-53
2022/05/08 10:43:25;;;;;;;4.17;3.23;;;;;;;20.56;37.86;99215.00;5053847;28;20192;-52
2022/05/08 10:45:53;;;;;;;8.43;3.80;;;;;;;20.56;38.60;99217.66;5052842;28;20229;-53
2022/05/08 10:48:22;;;;;;;8.03;4.03;;;;;;;20.50;38.99;99201.53;5053149;28;20262;-52
2022/05/08 10:50:51;;;;;;;5.87;3.47;;;;;;;20.68;38.26;99205.41;5051818;28;20898;-50
2022/05/08 10:53:27;;;;;;;6.60;3.53;;;;;;;20.75;37.87;99208.06;5053655;28;20193;-53
2022/05/08 10:56:01;;;;;;;7.43;4.33;;;;;;;20.68;38.80;99218.69;5053247;28;20292;-52
2022/05/08 10:58:28;;;;;;;4.53;3.83;;;;;;;20.83;38.70;99215.84;5053619;28;20672;-52
2022/05/08 11:01:02;;;;;;;6.70;4.07;;;;;;;20.42;39.42;99216.81;5053451;28;20190;-53
2022/05/08 11:03:29;;;;;;;4.40;4.00;;;;;;;20.71;39.53;99217.44;5051791;28;20539;-52
2022/05/08 11:05:57;;;;;;;7.90;3.63;;;;;;;20.80;38.76;99208.31;5050104;28;20270;-51
2022/05/08 11:08:28;;;;;;;7.37;3.83;;;;;;;20.83;38.88;99215.84;5051612;28;20664;-50
2022/05/08 11:11:02;;;;;;;6.87;4.00;;;;;;;20.82;39.27;99210.78;5048787;28;20202;-52
2022/05/08 11:13:43;;;;;;;4.53;3.97;;;;;;;20.67;39.92;99210.94;5054079;28;20648;-52
2022/05/08 11:16:15;;;;;;;6.10;4.37;;;;;;;20.93;40.20;99215.47;5054680;28;20552;-51
2022/05/08 11:18:43;;;;;;;6.10;4.40;;;;;;;21.25;39.73;99218.28;5055706;28;20226;-51
2022/05/08 11:21:10;;;;;;;4.83;4.40;;;;;;;21.13;39.34;99222.63;5053156;28;20271;-52
2022/05/08 11:23:42;;;;;;;5.80;4.17;;;;;;;20.77;40.39;99225.47;5055641;28;20536;-51
2022/05/08 11:26:10;;;;;;;5.57;4.10;;;;;;;20.84;39.69;99211.38;5053297;28;20198;-52
2022/05/08 11:28:47;;;;;;;6.37;3.87;;;;;;;20.64;40.20;99217.47;5054922;28;20199;-53
2022/05/08 11:31:18;;;;;;;5.83;3.70;;;;;;;20.77;39.92;99212.19;5051992;28;20243;-52
2022/05/08 11:36:31;;;;;;;4.97;4.23;;;;;;;20.77;39.08;99209.53;5054006;28;20207;-53
2022/05/08 11:38:59;;;;;;;5.30;3.70;;;;;;;21.01;38.26;99217.94;5049891;28;20592;-53
2022/05/08 11:41:46;;;;;;;4.73;3.83;;;;;;;21.01;38.53;99209.97;5048586;28;20197;-53
2022/05/08 11:44:28;;;;;;;6.67;4.53;;;;;;;20.85;39.95;99219.13;5051240;28;20213;-55
2022/05/08 11:46:57;;;;;;;6.47;4.00;;;;;;;20.99;40.47;99217.31;5048293;28;20195;-51
2022/05/08 11:49:25;;;;;;;6.07;4.30;;;;;;;20.93;40.03;99212.81;5049378;28;20218;-51
2022/05/08 11:51:53;;;;;;;4.97;4.07;;;;;;;20.84;38.70;99214.03;5052104;28;20209;-52
2022/05/08 11:54:22;;;;;;;4.57;3.93;;;;;;;20.52;39.39;99214.59;5049243;28;20222;-52
2022/05/08 11:56:51;;;;;;;4.83;3.67;;;;;;;20.63;39.25;99207.88;5048651;28;20225;-52
2022/05/08 11:59:20;;;;;;;6.07;3.73;;;;;;;20.60;39.08;99206.44;5051384;28;20202;-52
2022/05/08 12:02:08;;;;;;;7.40;3.47;;;;;;;20.32;38.48;99198.63;5052725;28;20206;-52
2022/05/08 12:04:35;;;;;;;4.20;3.57;;;;;;;20.30;38.61;99200.66;5050335;28;20219;-52
2022/05/08 12:07:05;;;;;;;7.33;3.67;;;;;;;20.68;38.98;99199.28;5058766;28;20187;-51
2022/05/08 12:09:33;;;;;;;3.93;3.50;;;;;;;20.83;37.99;99191.97;5062149;28;20250;-52
2022/05/08 12:12:23;;;;;;;6.77;3.80;;;;;;;21.20;38.18;99204.84;5053588;28;20206;-51